Stephens, Missouri
Current Conditions -  °F | °C
As of 12:54 PM on Tuesday 21 Oct 2014 (Local Time) from KCOU Reporting Station
Haze Haze  
Wind Chill: 71°   Ceiling: Unl
Heat Index: 71°   Visibility: 5mi
Dew Point: 45°   Wind: 8mph
Humidity: 39%   Direction: 10°N
Pressure: 30.13"   Gusts: NA
Location:  39.0235°N, 92.2896°W
Report Text: KCOU 211754Z 01007KT 5SM HZ CLR 22/07 A3013 RMK AO2 SLP198 T02170072 10217 20078 58003
Loading
Personal Weather Stations






























Interactive Weather Map
Tropical Storm Tracking
New forecast layout! Learn more

10-Day Weather Forecast

Advertisements
Track Severe Weather on mobile